Time;durP1;ratioP1;P1;durP2;ratioP2;P2;SDS_P1;SDS_P2;PMS_P1;PMS_P2;Temp;Humidity;BMP_temperature;BMP_pressure;BME280_temperature;BME280_humidity;BME280_pressure;Samples;Min_cycle;Max_cycle;Signal;HPM_P1;HPM_P2
2023/03/14 00:02:33;;;;;;;5.10;3.57;;;;;;;;;;6217234;28;20219;-54
2023/03/14 00:05:34;;;;;;;4.47;3.50;;;;;;;;;;6246607;28;20190;-52
2023/03/14 00:08:35;;;;;;;5.90;3.37;;;;;;;;;;6244629;28;20202;-55
2023/03/14 00:11:37;;;;;;;5.53;3.60;;;;;;;;;;6233061;28;20222;-55
2023/03/14 00:14:38;;;;;;;4.70;3.63;;;;;;;;;;6221234;28;20246;-53
2023/03/14 00:17:39;;;;;;;4.87;3.30;;;;;;;;;;6211721;28;20257;-52
2023/03/14 00:20:40;;;;;;;4.73;3.47;;;;;;;;;;6241282;28;20218;-56
2023/03/14 00:23:42;;;;;;;6.13;4.00;;;;;;;;;;6241079;28;20241;-55
2023/03/14 00:26:43;;;;;;;6.47;3.83;;;;;;;;;;6237774;28;20222;-54
2023/03/14 00:29:44;;;;;;;8.83;3.80;;;;;;;;;;6232210;28;20186;-56
2023/03/14 00:32:45;;;;;;;6.43;3.90;;;;;;;;;;6231137;28;20225;-54
2023/03/14 00:35:56;;;;;;;7.13;3.87;;;;;;;;;;6234017;28;20304;-52
2023/03/14 00:38:59;;;;;;;5.93;3.83;;;;;;;;;;6233551;28;20211;-57
2023/03/14 00:42:00;;;;;;;6.07;4.27;;;;;;;;;;6224698;28;20225;-52
2023/03/14 00:45:01;;;;;;;5.40;4.40;;;;;;;;;;6241234;28;20194;-54
2023/03/14 00:48:02;;;;;;;8.77;4.90;;;;;;;;;;6242091;28;20194;-55
2023/03/14 00:51:07;;;;;;;5.67;4.30;;;;;;;;;;6229312;28;20217;-50
2023/03/14 00:54:08;;;;;;;8.63;4.77;;;;;;;;;;6247544;28;20183;-52
2023/03/14 00:57:09;;;;;;;8.30;4.13;;;;;;;;;;6238808;28;20182;-56
2023/03/14 01:00:12;;;;;;;4.90;3.97;;;;;;;;;;6224876;28;20191;-55
2023/03/14 01:03:13;;;;;;;6.10;3.83;;;;;;;;;;6243805;28;20214;-51
2023/03/14 01:06:15;;;;;;;4.57;3.80;;;;;;;;;;6247949;28;20190;-53
2023/03/14 01:09:17;;;;;;;8.80;4.30;;;;;;;;;;6241757;28;20191;-55
2023/03/14 01:12:18;;;;;;;4.70;3.03;;;;;;;;;;6230275;28;20265;-52
2023/03/14 01:15:19;;;;;;;6.40;4.50;;;;;;;;;;6231449;28;20198;-53
2023/03/14 01:18:20;;;;;;;6.57;4.37;;;;;;;;;;6218655;28;20191;-56
2023/03/14 01:21:24;;;;;;;8.27;4.17;;;;;;;;;;6247073;28;20218;-55
2023/03/14 01:24:25;;;;;;;4.87;3.90;;;;;;;;;;6248422;28;20214;-55
2023/03/14 01:27:26;;;;;;;8.37;4.03;;;;;;;;;;6231630;28;20280;-56
2023/03/14 01:30:27;;;;;;;5.93;4.23;;;;;;;;;;6226348;28;20272;-54
2023/03/14 01:33:28;;;;;;;6.13;4.37;;;;;;;;;;6216329;28;20191;-52
2023/03/14 01:36:29;;;;;;;6.73;4.67;;;;;;;;;;6226019;28;20242;-54
2023/03/14 01:39:30;;;;;;;5.33;4.40;;;;;;;;;;6229466;28;20285;-55
2023/03/14 01:42:31;;;;;;;7.53;4.17;;;;;;;;;;6232217;28;20264;-54
2023/03/14 01:45:51;;;;;;;5.10;4.33;;;;;;;;;;6229723;28;20186;-55
2023/03/14 01:48:57;;;;;;;5.00;4.10;;;;;;;;;;6247270;28;20211;-54
2023/03/14 01:51:58;;;;;;;5.30;3.90;;;;;;;;;;6248109;28;20191;-53
2023/03/14 01:55:04;;;;;;;6.63;4.30;;;;;;;;;;6244761;28;20240;-54
2023/03/14 01:58:05;;;;;;;6.60;3.97;;;;;;;;;;6242107;28;20193;-53
2023/03/14 02:01:07;;;;;;;7.43;4.37;;;;;;;;;;6222303;28;20199;-57
2023/03/14 02:04:09;;;;;;;9.03;5.00;;;;;;;;;;6224487;28;20191;-51
2023/03/14 02:07:19;;;;;;;4.40;3.97;;;;;;;;;;6231537;28;20192;-56
2023/03/14 02:10:22;;;;;;;4.90;3.87;;;;;;;;;;6246219;28;20193;-56
2023/03/14 02:13:24;;;;;;;4.50;3.40;;;;;;;;;;6247940;28;20195;-56
2023/03/14 02:16:25;;;;;;;4.87;4.17;;;;;;;;;;6249479;28;20205;-52
2023/03/14 02:19:49;;;;;;;4.80;4.13;;;;;;;;;;6233246;28;20217;-55
2023/03/14 02:22:50;;;;;;;4.20;3.53;;;;;;;;;;6258759;28;20252;-54
2023/03/14 02:25:54;;;;;;;6.10;4.30;;;;;;;;;;6246421;28;20276;-54
2023/03/14 02:28:55;;;;;;;4.53;3.70;;;;;;;;;;6237277;28;20242;-55
2023/03/14 02:31:56;;;;;;;6.07;3.80;;;;;;;;;;6228050;28;20241;-53
2023/03/14 02:34:58;;;;;;;6.90;3.93;;;;;;;;;;6236192;28;20324;-56
2023/03/14 02:38:11;;;;;;;4.77;3.87;;;;;;;;;;6220754;28;20206;-55
2023/03/14 02:41:12;;;;;;;6.20;4.23;;;;;;;;;;6244311;28;20199;-56
2023/03/14 02:44:13;;;;;;;6.00;4.00;;;;;;;;;;6247530;28;20187;-57
2023/03/14 02:47:14;;;;;;;5.57;3.33;;;;;;;;;;6231230;28;20201;-56
2023/03/14 02:50:21;;;;;;;5.23;3.40;;;;;;;;;;6236285;28;20190;-55
2023/03/14 02:53:41;;;;;;;9.63;4.47;;;;;;;;;;6252470;28;20199;-57
2023/03/14 02:56:42;;;;;;;7.43;4.53;;;;;;;;;;6243071;28;20199;-55
2023/03/14 02:59:43;;;;;;;5.10;3.80;;;;;;;;;;6229184;28;20202;-54
2023/03/14 03:02:44;;;;;;;5.90;4.27;;;;;;;;;;6235591;28;20222;-53
2023/03/14 03:05:48;;;;;;;5.17;4.47;;;;;;;;;;6239973;28;20201;-54
2023/03/14 03:08:49;;;;;;;6.13;4.40;;;;;;;;;;6250887;28;20273;-54
2023/03/14 03:11:50;;;;;;;7.93;4.33;;;;;;;;;;6228646;28;20277;-53
2023/03/14 03:14:51;;;;;;;8.30;4.03;;;;;;;;;;6224532;28;20289;-56
2023/03/14 03:17:52;;;;;;;7.57;4.47;;;;;;;;;;6225803;28;20285;-55
2023/03/14 03:20:53;;;;;;;6.53;4.53;;;;;;;;;;6244219;28;20249;-54
2023/03/14 03:23:54;;;;;;;5.33;4.30;;;;;;;;;;6237656;28;20256;-52
2023/03/14 03:26:56;;;;;;;5.63;4.27;;;;;;;;;;6233810;28;20193;-56
2023/03/14 03:29:57;;;;;;;8.70;4.60;;;;;;;;;;6222850;28;20286;-56
2023/03/14 03:32:58;;;;;;;6.27;4.13;;;;;;;;;;6235052;28;20276;-57
2023/03/14 03:35:59;;;;;;;5.67;3.83;;;;;;;;;;6226851;28;20381;-54
2023/03/14 03:39:00;;;;;;;5.77;4.13;;;;;;;;;;6228776;28;20205;-56
2023/03/14 03:42:01;;;;;;;7.10;4.67;;;;;;;;;;6229959;28;20214;-55
2023/03/14 03:45:02;;;;;;;5.90;4.80;;;;;;;;;;6230586;28;20240;-55
2023/03/14 03:48:03;;;;;;;5.10;4.17;;;;;;;;;;6246117;28;20246;-53
2023/03/14 03:51:05;;;;;;;7.87;4.57;;;;;;;;;;6223471;28;20187;-56
2023/03/14 03:54:06;;;;;;;5.70;4.50;;;;;;;;;;6231566;28;20203;-53
2023/03/14 03:57:07;;;;;;;4.93;4.20;;;;;;;;;;6248789;28;20329;-55
2023/03/14 04:00:11;;;;;;;5.50;4.13;;;;;;;;;;6229413;28;20290;-53
2023/03/14 04:03:12;;;;;;;8.10;5.10;;;;;;;;;;6224985;28;20222;-52
2023/03/14 04:06:14;;;;;;;5.87;4.03;;;;;;;;;;6217756;28;20194;-56
2023/03/14 04:09:15;;;;;;;8.60;4.80;;;;;;;;;;6242836;28;20187;-57
2023/03/14 04:12:16;;;;;;;5.73;4.27;;;;;;;;;;6225397;28;20206;-56
2023/03/14 04:15:17;;;;;;;5.57;3.97;;;;;;;;;;6235182;28;20252;-52
2023/03/14 04:18:18;;;;;;;7.33;4.23;;;;;;;;;;6223100;28;20511;-55
2023/03/14 04:21:19;;;;;;;6.13;4.83;;;;;;;;;;6242765;28;20203;-55
2023/03/14 04:24:20;;;;;;;6.70;4.30;;;;;;;;;;6262068;28;20254;-56
2023/03/14 04:27:21;;;;;;;4.77;3.70;;;;;;;;;;6224805;28;20196;-59
2023/03/14 04:30:23;;;;;;;5.53;4.67;;;;;;;;;;6236954;28;20220;-54
2023/03/14 04:33:24;;;;;;;6.37;4.40;;;;;;;;;;6225248;28;20297;-56
2023/03/14 04:36:25;;;;;;;5.87;4.23;;;;;;;;;;6243512;28;20244;-53
2023/03/14 04:39:26;;;;;;;7.47;4.37;;;;;;;;;;6247859;28;20236;-56
2023/03/14 04:42:27;;;;;;;6.90;4.43;;;;;;;;;;6221911;28;20237;-57
2023/03/14 04:45:28;;;;;;;6.20;3.73;;;;;;;;;;6233680;28;20202;-54
2023/03/14 04:48:29;;;;;;;5.87;4.47;;;;;;;;;;6249865;28;20189;-53
2023/03/14 04:51:30;;;;;;;4.70;3.80;;;;;;;;;;6232991;28;20213;-55
2023/03/14 04:54:31;;;;;;;5.43;4.07;;;;;;;;;;6232778;28;20204;-56
2023/03/14 04:57:32;;;;;;;6.47;3.37;;;;;;;;;;6228392;28;20276;-56
2023/03/14 05:00:33;;;;;;;5.50;3.93;;;;;;;;;;6235911;28;20194;-57
2023/03/14 05:03:35;;;;;;;5.50;3.53;;;;;;;;;;6239969;28;20214;-56
2023/03/14 05:06:37;;;;;;;4.37;3.40;;;;;;;;;;6236835;28;20203;-58
2023/03/14 05:09:38;;;;;;;5.33;3.27;;;;;;;;;;6233657;28;20205;-55
2023/03/14 05:12:39;;;;;;;3.93;3.50;;;;;;;;;;6225771;28;20195;-56
2023/03/14 05:15:40;;;;;;;6.97;3.90;;;;;;;;;;6227119;28;20190;-51
2023/03/14 05:18:41;;;;;;;4.93;3.53;;;;;;;;;;6226832;28;20249;-54
2023/03/14 05:21:42;;;;;;;7.77;3.87;;;;;;;;;;6217477;28;20223;-53
2023/03/14 05:24:43;;;;;;;4.27;3.43;;;;;;;;;;6223017;28;20190;-51
2023/03/14 05:27:44;;;;;;;5.67;3.90;;;;;;;;;;6226734;28;20193;-56
2023/03/14 05:30:45;;;;;;;8.40;3.80;;;;;;;;;;6232095;28;20190;-55
2023/03/14 05:33:46;;;;;;;5.13;3.80;;;;;;;;;;6248845;28;20193;-49
2023/03/14 05:36:47;;;;;;;4.97;4.00;;;;;;;;;;6230916;28;20245;-53
2023/03/14 05:39:48;;;;;;;4.57;3.50;;;;;;;;;;6224320;28;20269;-54
2023/03/14 05:42:49;;;;;;;5.10;3.40;;;;;;;;;;6235758;28;20202;-50
2023/03/14 05:45:50;;;;;;;3.83;2.93;;;;;;;;;;6228252;28;20221;-50
2023/03/14 05:48:51;;;;;;;9.93;4.30;;;;;;;;;;6243554;28;20193;-54
2023/03/14 05:51:52;;;;;;;5.13;3.67;;;;;;;;;;6224060;28;20202;-50
2023/03/14 05:54:53;;;;;;;4.53;3.77;;;;;;;;;;6234151;28;20202;-50
2023/03/14 05:57:55;;;;;;;6.50;3.50;;;;;;;;;;6226272;28;20220;-51
2023/03/14 06:00:56;;;;;;;8.67;3.60;;;;;;;;;;6228548;28;20261;-49
2023/03/14 06:03:57;;;;;;;4.97;4.17;;;;;;;;;;6242425;28;20257;-49
2023/03/14 06:06:58;;;;;;;7.43;4.83;;;;;;;;;;6230262;28;20190;-51
2023/03/14 06:09:59;;;;;;;7.03;4.80;;;;;;;;;;6241567;28;20191;-49
2023/03/14 06:13:00;;;;;;;5.57;4.37;;;;;;;;;;6216779;28;20282;-49
2023/03/14 06:16:01;;;;;;;5.43;4.00;;;;;;;;;;6228862;28;20194;-50
2023/03/14 06:19:02;;;;;;;6.97;3.60;;;;;;;;;;6235936;28;20194;-53
2023/03/14 06:22:03;;;;;;;6.70;4.87;;;;;;;;;;6227309;28;20230;-54
2023/03/14 06:25:05;;;;;;;8.57;4.53;;;;;;;;;;6218052;28;20201;-49
2023/03/14 06:28:06;;;;;;;9.43;4.47;;;;;;;;;;6235879;28;20281;-52
2023/03/14 06:31:07;;;;;;;7.30;4.63;;;;;;;;;;6221830;28;20234;-51
2023/03/14 06:34:08;;;;;;;7.20;4.67;;;;;;;;;;6227746;28;20201;-50
2023/03/14 06:37:09;;;;;;;6.13;4.60;;;;;;;;;;6244455;28;20249;-54
2023/03/14 06:40:12;;;;;;;6.23;3.70;;;;;;;;;;6245101;28;20205;-50
2023/03/14 06:43:13;;;;;;;8.27;4.17;;;;;;;;;;6242193;28;20203;-50
2023/03/14 06:46:15;;;;;;;5.13;4.23;;;;;;;;;;6222588;28;20217;-52
2023/03/14 06:49:16;;;;;;;7.83;5.27;;;;;;;;;;6229090;28;20286;-51
2023/03/14 06:52:17;;;;;;;8.67;4.47;;;;;;;;;;6228505;28;20478;-50
2023/03/14 06:55:18;;;;;;;6.00;4.90;;;;;;;;;;6233102;28;20247;-50
2023/03/14 06:58:19;;;;;;;8.27;4.33;;;;;;;;;;6232058;28;20221;-51
2023/03/14 07:01:21;;;;;;;8.00;4.60;;;;;;;;;;6229576;28;20621;-51
2023/03/14 07:04:23;;;;;;;6.43;4.23;;;;;;;;;;6241740;28;20183;-49
2023/03/14 07:07:24;;;;;;;9.93;4.53;;;;;;;;;;6231300;28;20257;-49
2023/03/14 07:10:25;;;;;;;8.43;4.80;;;;;;;;;;6231106;28;20194;-51
2023/03/14 07:13:26;;;;;;;5.87;4.03;;;;;;;;;;6233586;28;20217;-48
2023/03/14 07:16:28;;;;;;;6.03;3.90;;;;;;;;;;6232076;28;20198;-51
2023/03/14 07:19:29;;;;;;;6.30;3.90;;;;;;;;;;6249597;28;20194;-54
2023/03/14 07:22:31;;;;;;;8.57;4.00;;;;;;;;;;6247032;28;20218;-49
2023/03/14 07:25:32;;;;;;;6.27;3.80;;;;;;;;;;6249351;28;20210;-48
2023/03/14 07:28:33;;;;;;;5.33;3.20;;;;;;;;;;6230545;28;20203;-48
2023/03/14 07:31:34;;;;;;;6.47;3.60;;;;;;;;;;6232300;28;20201;-51
2023/03/14 07:34:35;;;;;;;6.70;3.50;;;;;;;;;;6227527;28;20205;-49
2023/03/14 07:37:36;;;;;;;5.10;3.43;;;;;;;;;;6233352;28;20325;-48
2023/03/14 07:40:37;;;;;;;5.63;3.33;;;;;;;;;;6226804;28;20198;-49
2023/03/14 07:43:38;;;;;;;5.40;4.07;;;;;;;;;;6242604;28;20228;-48
2023/03/14 07:46:39;;;;;;;5.93;3.90;;;;;;;;;;6245432;28;20190;-50
2023/03/14 07:49:40;;;;;;;6.50;3.77;;;;;;;;;;6246964;28;20232;-50
2023/03/14 07:52:41;;;;;;;7.10;4.07;;;;;;;;;;6226114;28;20199;-52
2023/03/14 07:55:42;;;;;;;5.63;3.03;;;;;;;;;;6232810;28;20208;-51
2023/03/14 07:58:43;;;;;;;5.83;3.47;;;;;;;;;;6232544;28;20213;-48
2023/03/14 08:01:45;;;;;;;5.77;2.70;;;;;;;;;;6231372;28;20218;-51
2023/03/14 08:04:46;;;;;;;3.93;2.17;;;;;;;;;;6239979;28;20186;-49
2023/03/14 08:07:47;;;;;;;3.20;2.27;;;;;;;;;;6227822;28;20242;-49
2023/03/14 08:10:48;;;;;;;3.73;2.43;;;;;;;;;;6216113;28;20200;-52
2023/03/14 08:13:50;;;;;;;4.67;2.20;;;;;;;;;;6226938;28;20300;-51
2023/03/14 08:16:52;;;;;;;4.17;2.20;;;;;;;;;;6226472;28;20222;-49
2023/03/14 08:19:53;;;;;;;3.07;1.90;;;;;;;;;;6242606;28;20236;-52
2023/03/14 08:22:56;;;;;;;2.10;1.80;;;;;;;;;;6227033;28;20315;-49
2023/03/14 08:25:57;;;;;;;3.00;1.77;;;;;;;;;;6240230;28;20222;-51
2023/03/14 08:28:58;;;;;;;2.90;2.00;;;;;;;;;;6230459;28;20190;-50
2023/03/14 08:31:59;;;;;;;2.87;2.17;;;;;;;;;;6231485;28;20204;-49
2023/03/14 08:35:00;;;;;;;4.87;1.50;;;;;;;;;;6226163;28;20225;-50
2023/03/14 08:38:01;;;;;;;2.57;2.10;;;;;;;;;;6230575;28;20194;-49
2023/03/14 08:41:03;;;;;;;2.77;1.77;;;;;;;;;;6232020;28;20202;-50
2023/03/14 08:44:04;;;;;;;2.57;1.70;;;;;;;;;;6222840;28;20269;-51
2023/03/14 08:47:05;;;;;;;2.03;1.83;;;;;;;;;;6226991;28;20199;-52
2023/03/14 08:50:07;;;;;;;2.97;2.00;;;;;;;;;;6223238;28;20251;-49
2023/03/14 08:53:08;;;;;;;5.70;2.40;;;;;;;;;;6242439;28;20198;-49
2023/03/14 08:56:10;;;;;;;2.50;1.90;;;;;;;;;;6228420;28;20285;-49
2023/03/14 08:59:11;;;;;;;3.73;2.10;;;;;;;;;;6243539;28;20195;-52
2023/03/14 09:02:12;;;;;;;3.17;1.70;;;;;;;;;;6224561;28;20243;-51
2023/03/14 09:05:14;;;;;;;2.83;1.87;;;;;;;;;;6223938;28;20195;-51
2023/03/14 09:08:15;;;;;;;4.50;2.30;;;;;;;;;;6247375;28;20201;-51
2023/03/14 09:11:17;;;;;;;4.30;2.00;;;;;;;;;;6242279;28;20214;-49
2023/03/14 09:14:18;;;;;;;3.50;1.83;;;;;;;;;;6222205;28;20212;-52
2023/03/14 09:17:19;;;;;;;3.60;2.10;;;;;;;;;;6246398;28;20263;-51
2023/03/14 09:20:20;;;;;;;3.23;1.70;;;;;;;;;;6246545;28;20201;-53
2023/03/14 09:23:21;;;;;;;2.87;1.50;;;;;;;;;;6226955;28;20364;-52
2023/03/14 09:26:23;;;;;;;6.53;2.17;;;;;;;;;;6223794;28;20218;-50
2023/03/14 09:29:24;;;;;;;3.37;1.90;;;;;;;;;;6219581;28;20202;-50
2023/03/14 09:32:25;;;;;;;3.63;2.10;;;;;;;;;;6239393;28;20194;-51
2023/03/14 09:35:26;;;;;;;4.53;2.10;;;;;;;;;;6229940;28;20241;-52
2023/03/14 09:38:27;;;;;;;2.77;1.40;;;;;;;;;;6225494;28;20191;-54
2023/03/14 09:41:31;;;;;;;2.10;1.80;;;;;;;;;;6222268;28;20240;-49
2023/03/14 09:44:33;;;;;;;3.47;1.77;;;;;;;;;;6246824;28;20194;-49
2023/03/14 09:47:35;;;;;;;3.00;1.87;;;;;;;;;;6222171;28;20233;-55
2023/03/14 09:50:41;;;;;;;4.57;1.93;;;;;;;;;;6230726;28;20191;-50
2023/03/14 09:53:44;;;;;;;3.60;1.70;;;;;;;;;;6243367;28;20223;-52
2023/03/14 09:56:45;;;;;;;3.63;1.77;;;;;;;;;;6242626;28;20190;-54
2023/03/14 09:59:47;;;;;;;2.20;1.60;;;;;;;;;;6217384;28;20286;-50
2023/03/14 10:02:53;;;;;;;2.50;1.50;;;;;;;;;;6239322;28;20284;-50
2023/03/14 10:05:55;;;;;;;2.20;1.60;;;;;;;;;;6258325;28;20194;-53
2023/03/14 10:08:56;;;;;;;4.10;1.70;;;;;;;;;;6240401;28;20187;-51
2023/03/14 10:12:01;;;;;;;3.53;1.73;;;;;;;;;;6237513;28;20226;-52
2023/03/14 10:15:07;;;;;;;3.47;2.10;;;;;;;;;;6237423;28;20300;-49
2023/03/14 10:18:12;;;;;;;4.70;2.73;;;;;;;;;;6241145;28;20251;-49
2023/03/14 10:21:35;;;;;;;5.10;2.47;;;;;;;;;;6246317;28;20196;-50
2023/03/14 10:24:36;;;;;;;5.80;2.10;;;;;;;;;;6238663;28;20189;-52
2023/03/14 10:27:37;;;;;;;5.13;2.30;;;;;;;;;;6227189;28;20193;-50
2023/03/14 10:30:45;;;;;;;2.70;1.80;;;;;;;;;;6233887;28;20183;-50
2023/03/14 10:34:06;;;;;;;4.07;1.60;;;;;;;;;;6250500;28;20317;-49
2023/03/14 10:37:25;;;;;;;5.30;1.77;;;;;;;;;;6248253;28;20240;-51
2023/03/14 10:40:28;;;;;;;3.23;1.70;;;;;;;;;;6241977;28;20191;-53
2023/03/14 10:43:34;;;;;;;4.00;2.10;;;;;;;;;;6233214;28;20207;-50
2023/03/14 10:46:35;;;;;;;2.37;1.70;;;;;;;;;;6250961;28;20191;-49
2023/03/14 10:49:37;;;;;;;2.13;1.70;;;;;;;;;;6245373;28;20199;-52
2023/03/14 10:52:48;;;;;;;2.50;1.97;;;;;;;;;;6263999;28;20278;-53
2023/03/14 10:55:49;;;;;;;4.50;2.53;;;;;;;;;;6250031;28;20257;-49
2023/03/14 10:58:51;;;;;;;2.77;1.50;;;;;;;;;;6242728;28;20192;-50
2023/03/14 11:02:13;;;;;;;1.70;0.60;;;;;;;;;;6232180;28;20223;-49
2023/03/14 11:05:17;;;;;;;2.87;1.13;;;;;;;;;;6233682;28;20207;-51
2023/03/14 11:08:18;;;;;;;0.40;0.40;;;;;;;;;;6249426;28;20222;-52
2023/03/14 11:11:22;;;;;;;1.63;0.60;;;;;;;;;;6247896;28;20190;-52
2023/03/14 11:14:26;;;;;;;1.47;0.50;;;;;;;;;;6242371;28;20202;-49
2023/03/14 11:17:47;;;;;;;0.70;0.40;;;;;;;;;;6259502;28;20188;-49
2023/03/14 11:20:48;;;;;;;0.43;0.20;;;;;;;;;;6231530;28;20295;-52
2023/03/14 11:24:15;;;;;;;0.60;0.40;;;;;;;;;;6249448;28;20210;-52
2023/03/14 11:27:18;;;;;;;0.47;0.30;;;;;;;;;;6245172;28;20194;-50
2023/03/14 11:30:39;;;;;;;0.20;0.20;;;;;;;;;;6244571;28;20194;-50
2023/03/14 11:33:46;;;;;;;0.20;0.20;;;;;;;;;;6255026;28;20275;-53
2023/03/14 11:36:57;;;;;;;0.63;0.40;;;;;;;;;;6242930;28;20290;-49
2023/03/14 11:40:15;;;;;;;5.07;0.63;;;;;;;;;;6249816;28;20203;-51
2023/03/14 11:43:19;;;;;;;0.50;0.40;;;;;;;;;;6244216;28;20235;-52
2023/03/14 11:46:24;;;;;;;0.67;0.40;;;;;;;;;;6243234;28;20199;-49
2023/03/14 11:49:35;;;;;;;0.20;0.20;;;;;;;;;;6241420;28;20179;-50
2023/03/14 11:52:38;;;;;;;1.40;0.30;;;;;;;;;;6249757;28;20206;-51
2023/03/14 11:55:41;;;;;;;0.27;0.27;;;;;;;;;;6243894;28;20197;-50
2023/03/14 11:58:45;;;;;;;0.47;0.40;;;;;;;;;;6242289;28;20191;-49
2023/03/14 12:01:58;;;;;;;0.63;0.30;;;;;;;;;;6248403;28;20279;-51
2023/03/14 12:05:18;;;;;;;1.80;0.40;;;;;;;;;;6265172;28;20202;-52
2023/03/14 12:08:40;;;;;;;0.30;0.30;;;;;;;;;;6248855;28;20199;-51
2023/03/14 12:11:45;;;;;;;0.40;0.40;;;;;;;;;;6249393;28;20183;-49
2023/03/14 12:14:52;;;;;;;0.30;0.30;;;;;;;;;;6248904;28;20280;-51
2023/03/14 12:17:56;;;;;;;0.20;0.20;;;;;;;;;;6256922;28;20194;-54
2023/03/14 12:21:02;;;;;;;0.40;0.40;;;;;;;;;;6242941;28;20195;-49
2023/03/14 12:24:03;;;;;;;0.50;0.50;;;;;;;;;;6247252;28;20234;-50
2023/03/14 12:27:06;;;;;;;1.40;0.50;;;;;;;;;;6233309;28;20201;-53
2023/03/14 12:30:29;;;;;;;0.60;0.47;;;;;;;;;;6246034;28;20230;-49
2023/03/14 12:33:31;;;;;;;0.53;0.30;;;;;;;;;;6240169;28;20295;-52
2023/03/14 12:36:55;;;;;;;1.63;0.47;;;;;;;;;;6220582;28;20243;-50
2023/03/14 12:40:17;;;;;;;0.83;0.40;;;;;;;;;;6252971;28;20210;-49
2023/03/14 12:43:26;;;;;;;0.80;0.50;;;;;;;;;;6243537;28;20210;-52
2023/03/14 12:46:28;;;;;;;0.57;0.50;;;;;;;;;;6260238;28;20191;-53
2023/03/14 12:49:32;;;;;;;0.43;0.30;;;;;;;;;;6225138;28;20245;-52
2023/03/14 12:52:37;;;;;;;0.47;0.47;;;;;;;;;;6234081;28;20221;-49
2023/03/14 12:55:51;;;;;;;0.67;0.50;;;;;;;;;;6244147;28;20215;-50
2023/03/14 12:59:01;;;;;;;0.67;0.30;;;;;;;;;;6235245;28;20276;-53
2023/03/14 13:02:03;;;;;;;0.97;0.40;;;;;;;;;;6247732;28;20219;-49
2023/03/14 13:05:19;;;;;;;0.40;0.40;;;;;;;;;;6246743;28;20198;-50
2023/03/14 13:08:56;;;;;;;1.37;0.50;;;;;;;;;;6248360;28;20192;-54
2023/03/14 13:12:02;;;;;;;0.53;0.30;;;;;;;;;;6214193;28;20207;-52
2023/03/14 13:15:13;;;;;;;1.07;0.53;;;;;;;;;;6242921;28;20211;-50
2023/03/14 13:18:14;;;;;;;0.40;0.40;;;;;;;;;;6235218;28;20195;-54
2023/03/14 13:21:17;;;;;;;1.77;0.40;;;;;;;;;;6241996;28;20192;-52
2023/03/14 13:24:22;;;;;;;1.37;0.50;;;;;;;;;;6243445;28;20242;-49
2023/03/14 13:27:24;;;;;;;4.47;0.93;;;;;;;;;;6248196;28;20202;-49
2023/03/14 13:30:27;;;;;;;0.60;0.60;;;;;;;;;;6220402;28;20290;-49
2023/03/14 13:33:28;;;;;;;1.70;0.50;;;;;;;;;;6240166;28;20290;-52
2023/03/14 13:36:29;;;;;;;1.17;0.80;;;;;;;;;;6239620;28;20237;-49
2023/03/14 13:39:32;;;;;;;2.00;0.93;;;;;;;;;;6229553;28;20244;-49
2023/03/14 13:42:33;;;;;;;1.30;0.70;;;;;;;;;;6230756;28;20231;-50
2023/03/14 13:45:42;;;;;;;2.90;1.00;;;;;;;;;;6245987;28;20188;-50
2023/03/14 13:48:48;;;;;;;2.07;0.93;;;;;;;;;;6245534;28;20186;-49
2023/03/14 13:51:49;;;;;;;2.23;0.80;;;;;;;;;;6243886;28;20196;-49
2023/03/14 13:54:54;;;;;;;4.27;1.50;;;;;;;;;;6241141;28;20183;-52
2023/03/14 13:57:55;;;;;;;3.33;1.07;;;;;;;;;;6242935;28;20200;-49
2023/03/14 14:00:59;;;;;;;1.57;0.90;;;;;;;;;;6236562;28;20205;-50
2023/03/14 14:04:07;;;;;;;1.67;1.00;;;;;;;;;;6257814;28;20261;-51
2023/03/14 14:07:11;;;;;;;1.63;0.80;;;;;;;;;;6250564;28;20219;-51
2023/03/14 14:10:13;;;;;;;2.40;0.93;;;;;;;;;;6258984;28;20242;-49
2023/03/14 14:13:18;;;;;;;3.17;1.10;;;;;;;;;;6255563;28;20210;-50
2023/03/14 14:16:21;;;;;;;2.27;1.03;;;;;;;;;;6253412;28;20228;-54
2023/03/14 14:19:24;;;;;;;1.97;1.10;;;;;;;;;;6233279;28;20215;-49
2023/03/14 14:22:26;;;;;;;1.60;0.83;;;;;;;;;;6233344;28;20207;-50
2023/03/14 14:25:28;;;;;;;1.50;0.93;;;;;;;;;;6234202;28;20199;-50
2023/03/14 14:28:34;;;;;;;1.00;0.73;;;;;;;;;;6238859;28;20200;-49
2023/03/14 14:31:36;;;;;;;1.00;0.90;;;;;;;;;;6252226;28;20195;-52
2023/03/14 14:34:50;;;;;;;1.10;0.90;;;;;;;;;;6255534;28;20190;-53
2023/03/14 14:37:52;;;;;;;0.90;0.70;;;;;;;;;;6261055;28;20284;-55
2023/03/14 14:41:00;;;;;;;2.60;1.10;;;;;;;;;;6248905;28;20191;-54
2023/03/14 14:44:03;;;;;;;1.37;1.07;;;;;;;;;;6241258;28;20212;-53
2023/03/14 14:47:04;;;;;;;3.60;1.10;;;;;;;;;;6254299;28;20197;-55
2023/03/14 14:50:05;;;;;;;1.30;1.10;;;;;;;;;;6229029;28;20195;-52
2023/03/14 14:53:21;;;;;;;2.40;1.03;;;;;;;;;;6263706;28;20201;-49
2023/03/14 14:56:27;;;;;;;1.77;0.80;;;;;;;;;;6253817;28;20283;-51
2023/03/14 14:59:28;;;;;;;1.77;1.00;;;;;;;;;;6255734;28;20199;-54
2023/03/14 15:02:29;;;;;;;1.23;1.10;;;;;;;;;;6253697;28;20213;-49
2023/03/14 15:05:35;;;;;;;1.83;1.13;;;;;;;;;;6251953;28;20205;-50
2023/03/14 15:08:37;;;;;;;1.10;0.87;;;;;;;;;;6239503;28;20192;-54
2023/03/14 15:11:38;;;;;;;1.30;0.83;;;;;;;;;;6244442;28;20296;-52
2023/03/14 15:14:39;;;;;;;3.13;0.97;;;;;;;;;;6230887;28;20196;-54
2023/03/14 15:17:41;;;;;;;2.53;1.07;;;;;;;;;;6233878;28;20192;-53
2023/03/14 15:20:42;;;;;;;0.77;0.70;;;;;;;;;;6245627;28;20212;-53
2023/03/14 15:23:43;;;;;;;2.10;1.10;;;;;;;;;;6229071;28;20220;-49
2023/03/14 15:26:44;;;;;;;1.87;0.90;;;;;;;;;;6226405;28;20233;-55
2023/03/14 15:29:45;;;;;;;1.83;1.17;;;;;;;;;;6243255;28;20198;-50
2023/03/14 15:32:47;;;;;;;2.30;1.10;;;;;;;;;;6228116;28;20247;-48
2023/03/14 15:35:48;;;;;;;1.00;0.83;;;;;;;;;;6241769;28;20252;-50
2023/03/14 15:38:50;;;;;;;2.27;1.20;;;;;;;;;;6250825;28;20200;-53
2023/03/14 15:41:51;;;;;;;1.93;1.10;;;;;;;;;;6246199;28;20198;-50
2023/03/14 15:44:52;;;;;;;1.03;0.90;;;;;;;;;;6223557;28;20195;-51
2023/03/14 15:47:53;;;;;;;2.30;1.00;;;;;;;;;;6222074;28;20187;-50
2023/03/14 15:50:54;;;;;;;0.63;0.63;;;;;;;;;;6233297;28;20199;-50
2023/03/14 15:53:55;;;;;;;0.67;0.67;;;;;;;;;;6229365;28;20245;-48
2023/03/14 15:56:57;;;;;;;0.87;0.67;;;;;;;;;;6232956;28;20210;-50
2023/03/14 15:59:58;;;;;;;1.20;0.60;;;;;;;;;;6245131;28;20224;-53
2023/03/14 16:02:59;;;;;;;2.63;0.80;;;;;;;;;;6250442;28;20218;-52
2023/03/14 16:06:02;;;;;;;1.53;1.00;;;;;;;;;;6244588;28;20203;-49
2023/03/14 16:09:04;;;;;;;1.80;0.90;;;;;;;;;;6242306;28;20274;-51
2023/03/14 16:12:07;;;;;;;0.97;0.67;;;;;;;;;;6233477;28;20203;-49
2023/03/14 16:15:09;;;;;;;1.23;0.80;;;;;;;;;;6232184;28;20198;-51
2023/03/14 16:18:10;;;;;;;1.80;0.80;;;;;;;;;;6245440;28;20199;-49
2023/03/14 16:21:12;;;;;;;1.03;0.90;;;;;;;;;;6249555;28;20197;-50
2023/03/14 16:24:13;;;;;;;1.17;1.00;;;;;;;;;;6249420;28;20208;-47
2023/03/14 16:27:14;;;;;;;3.63;1.17;;;;;;;;;;6233142;28;20194;-52
2023/03/14 16:30:16;;;;;;;1.53;1.00;;;;;;;;;;6249577;28;20190;-49
2023/03/14 16:33:17;;;;;;;2.63;2.00;;;;;;;;;;6227028;28;20253;-48
2023/03/14 16:36:18;;;;;;;1.63;1.10;;;;;;;;;;6247850;28;20318;-53
2023/03/14 16:39:19;;;;;;;2.20;1.50;;;;;;;;;;6213921;28;20202;-51
2023/03/14 16:42:21;;;;;;;1.80;1.33;;;;;;;;;;6247341;28;20218;-52
2023/03/14 16:45:22;;;;;;;2.97;1.90;;;;;;;;;;6220268;28;20194;-50
2023/03/14 16:48:23;;;;;;;4.43;1.67;;;;;;;;;;6221819;28;20281;-53
2023/03/14 16:51:24;;;;;;;2.97;2.23;;;;;;;;;;6236122;28;20191;-49
2023/03/14 16:54:25;;;;;;;3.70;1.53;;;;;;;;;;6252780;28;20222;-50
2023/03/14 16:57:26;;;;;;;2.13;1.40;;;;;;;;;;6224332;28;20198;-49
2023/03/14 17:00:27;;;;;;;1.67;1.40;;;;;;;;;;6238814;28;20256;-51
2023/03/14 17:03:29;;;;;;;2.27;1.60;;;;;;;;;;6238530;28;20241;-52
2023/03/14 17:06:30;;;;;;;2.00;1.10;;;;;;;;;;6240879;28;20187;-55
2023/03/14 17:09:31;;;;;;;1.80;1.20;;;;;;;;;;6246795;28;20201;-51
2023/03/14 17:12:32;;;;;;;1.90;1.17;;;;;;;;;;6222835;28;20194;-50
2023/03/14 17:15:35;;;;;;;1.10;1.00;;;;;;;;;;6246154;28;20205;-50
2023/03/14 17:18:37;;;;;;;1.13;0.90;;;;;;;;;;6248407;28;20199;-48
2023/03/14 17:21:38;;;;;;;2.07;1.30;;;;;;;;;;6225795;28;20194;-55
2023/03/14 17:24:39;;;;;;;1.30;1.10;;;;;;;;;;6246816;28;20260;-50
2023/03/14 17:27:40;;;;;;;1.37;1.20;;;;;;;;;;6231738;28;20190;-54
2023/03/14 17:30:41;;;;;;;0.97;0.80;;;;;;;;;;6244392;28;20197;-50
2023/03/14 17:33:43;;;;;;;1.37;1.00;;;;;;;;;;6218759;28;20220;-52
2023/03/14 17:36:44;;;;;;;3.60;2.37;;;;;;;;;;6246749;28;20234;-51
2023/03/14 17:39:45;;;;;;;3.17;2.40;;;;;;;;;;6226097;28;20198;-49
2023/03/14 17:42:46;;;;;;;3.53;2.53;;;;;;;;;;6234617;28;20217;-55
2023/03/14 17:45:48;;;;;;;2.20;1.63;;;;;;;;;;6232133;28;20193;-53
2023/03/14 17:48:49;;;;;;;2.80;1.37;;;;;;;;;;6229569;28;20191;-52
2023/03/14 17:51:50;;;;;;;4.93;1.20;;;;;;;;;;6248115;28;20201;-53
2023/03/14 17:54:52;;;;;;;1.00;0.90;;;;;;;;;;6246991;28;20186;-53
2023/03/14 17:57:53;;;;;;;1.60;1.00;;;;;;;;;;6225324;28;20217;-52
2023/03/14 18:00:55;;;;;;;1.70;1.17;;;;;;;;;;6211603;28;20197;-52
2023/03/14 18:03:57;;;;;;;1.20;1.07;;;;;;;;;;6243548;28;20211;-53
2023/03/14 18:06:59;;;;;;;2.03;1.77;;;;;;;;;;6245695;28;20187;-51
2023/03/14 18:10:02;;;;;;;2.57;1.50;;;;;;;;;;6244906;28;20241;-52
2023/03/14 18:13:04;;;;;;;4.43;1.40;;;;;;;;;;6257439;28;20286;-50
2023/03/14 18:16:06;;;;;;;2.10;1.40;;;;;;;;;;6231241;28;20190;-55
2023/03/14 18:19:07;;;;;;;1.27;1.10;;;;;;;;;;6245810;28;20281;-57